Time;durP1;ratioP1;P1;durP2;ratioP2;P2;SDS_P1;SDS_P2;PMS_P1;PMS_P2;Temp;Humidity;BMP_temperature;BMP_pressure;BME280_temperature;BME280_humidity;BME280_pressure;Samples;Min_cycle;Max_cycle;Signal;HPM_P1;HPM_P2
2021/05/08 00:01:32;;;;;;;6.30;3.15;;;307.50;2304.00;;;;;;5080560;28;20496;-76
2021/05/08 00:03:57;;;;;;;;;;;307.60;2304.00;;;;;;5086422;28;20468;-76
2021/05/08 00:06:23;;;;;;;5.93;2.38;;;307.70;2304.00;;;;;;5087347;28;20264;-80
2021/05/08 00:08:49;;;;;;;4.53;2.28;;;307.60;2304.00;;;;;;5090415;28;20081;-76
2021/05/08 00:11:14;;;;;;;7.78;3.25;;;307.70;2304.00;;;;;;5087901;28;20066;-76
2021/05/08 00:13:40;;;;;;;7.70;3.15;;;307.80;2304.00;;;;;;5091099;28;20016;-76
2021/05/08 00:16:06;;;;;;;6.05;2.35;;;307.70;2304.00;;;;;;5090498;28;20480;-76
2021/05/08 00:18:31;;;;;;;5.95;2.78;;;307.60;2304.00;;;;;;5090979;28;20048;-76
2021/05/08 00:20:57;;;;;;;7.20;2.85;;;307.70;2304.00;;;;;;5085593;28;20457;-76
2021/05/08 00:23:23;;;;;;;6.30;3.13;;;307.80;2304.00;;;;;;5091430;28;20033;-76
2021/05/08 00:25:49;;;;;;;5.32;3.10;;;307.80;2304.00;;;;;;5082378;28;20040;-76
2021/05/08 00:28:14;;;;;;;6.30;3.53;;;307.80;2304.00;;;;;;5070755;28;20055;-76
2021/05/08 00:30:40;;;;;;;6.05;3.03;;;307.80;2304.00;;;;;;5071131;28;20102;-76
2021/05/08 00:33:06;;;;;;;7.22;3.05;;;307.80;2304.00;;;;;;5085758;28;20091;-76
2021/05/08 00:35:32;;;;;;;7.35;3.22;;;307.60;2304.00;;;;;;5077585;28;20028;-76
2021/05/08 00:37:58;;;;;;;4.03;2.80;;;307.50;2304.00;;;;;;5082298;28;20028;-76
2021/05/08 00:40:24;;;;;;;6.13;2.90;;;307.40;2304.00;;;;;;5083183;28;20404;-76
2021/05/08 00:42:49;;;;;;;5.50;3.47;;;307.50;2304.00;;;;;;5087545;28;20028;-76
2021/05/08 00:45:15;;;;;;;;;;;307.60;2304.00;;;;;;5089432;28;20027;-76
2021/05/08 00:47:44;;;;;;;5.97;3.20;;;307.60;2304.00;;;;;;5082566;28;19908;-76
2021/05/08 00:50:12;;;;;;;5.05;3.10;;;307.40;2304.00;;;;;;5080197;28;20021;-76
2021/05/08 00:52:38;;;;;;;6.28;3.22;;;307.60;2304.00;;;;;;5089935;28;20396;-77
2021/05/08 00:55:08;;;;;;;5.43;3.42;;;307.60;2304.00;;;;;;5094935;28;20016;-76
2021/05/08 00:57:34;;;;;;;5.95;3.80;;;307.60;2304.00;;;;;;5094404;28;20020;-76
2021/05/08 01:00:01;;;;;;;6.72;3.75;;;307.50;2304.00;;;;;;5094612;28;20103;-77
2021/05/08 01:02:27;;;;;;;5.18;3.83;;;307.50;2304.00;;;;;;5094627;28;20024;-77
2021/05/08 01:04:53;;;;;;;5.20;3.47;;;307.50;2304.00;;;;;;5094792;28;20086;-76
2021/05/08 01:07:19;;;;;;;4.97;3.33;;;307.30;2304.00;;;;;;5094682;28;20155;-76
2021/05/08 01:09:46;;;;;;;6.32;4.10;;;307.40;2304.00;;;;;;5094433;28;20024;-77
2021/05/08 01:12:12;;;;;;;6.47;3.83;;;307.30;2304.00;;;;;;5094509;28;20028;-77
2021/05/08 01:14:39;;;;;;;7.35;3.78;;;307.40;2304.00;;;;;;5094197;28;20044;-77
2021/05/08 01:17:04;;;;;;;8.13;3.88;;;307.50;2304.00;;;;;;5075978;28;20032;-76
2021/05/08 01:19:32;;;;;;;6.38;3.90;;;307.40;2304.00;;;;;;5094399;28;20039;-76
2021/05/08 01:21:58;;;;;;;6.82;3.97;;;307.40;2304.00;;;;;;5075903;28;20071;-76
2021/05/08 01:24:24;;;;;;;7.32;3.35;;;307.30;2304.00;;;;;;5110929;28;20024;-77
2021/05/08 01:26:50;;;;;;;7.82;4.47;;;282.50;2278.40;;;;;;5100855;28;20471;-77
2021/05/08 01:29:16;;;;;;;7.25;4.10;;;307.20;2304.00;;;;;;5114508;28;20027;-77
2021/05/08 01:31:41;;;;;;;7.10;4.53;;;307.20;2304.00;;;;;;5107999;28;20072;-76
2021/05/08 01:34:07;;;;;;;6.50;4.00;;;307.40;2304.00;;;;;;5094105;28;20024;-78
2021/05/08 01:36:34;;;;;;;8.75;3.67;;;307.30;2304.00;;;;;;5093765;28;20515;-76
2021/05/08 01:39:00;;;;;;;7.05;4.13;;;307.50;2304.00;;;;;;5094093;28;20020;-76
2021/05/08 01:41:27;;;;;;;6.93;4.20;;;307.20;2304.00;;;;;;5077486;28;20027;-76
2021/05/08 01:43:52;;;;;;;7.47;4.18;;;307.30;2304.00;;;;;;5108551;28;20024;-77
2021/05/08 01:46:19;;;;;;;6.35;4.70;;;307.20;2304.00;;;;;;5093414;28;20495;-76
2021/05/08 01:48:45;;;;;;;6.28;4.20;;;307.30;2304.00;;;;;;5093987;28;20024;-77
2021/05/08 01:51:10;;;;;;;5.20;3.97;;;307.30;2304.00;;;;;;5093758;28;20551;-77
2021/05/08 01:53:36;;;;;;;8.00;3.58;;;282.50;2278.40;;;;;;5075593;28;20039;-76
2021/05/08 01:56:02;;;;;;;5.30;3.90;;;307.30;2304.00;;;;;;5107326;28;20024;-77
2021/05/08 01:58:28;;;;;;;5.32;3.80;;;307.30;2304.00;;;;;;5093480;28;20130;-77
2021/05/08 02:00:54;;;;;;;7.10;4.00;;;307.20;2304.00;;;;;;5093582;28;20028;-77
2021/05/08 02:03:20;;;;;;;6.80;3.78;;;282.50;2278.40;;;;;;5104242;28;20020;-76
2021/05/08 02:05:47;;;;;;;12.30;4.22;;;307.20;2304.00;;;;;;5099630;28;20039;-76
2021/05/08 02:08:13;;;;;;;5.85;4.25;;;282.30;2278.40;;;;;;5113653;28;20012;-76
2021/05/08 02:10:42;;;;;;;6.32;4.63;;;282.30;2278.40;;;;;;5113721;28;20032;-76
2021/05/08 02:13:09;;;;;;;7.60;3.97;;;282.30;2278.40;;;;;;5094740;28;20085;-76
2021/05/08 02:15:35;;;;;;;8.20;4.82;;;282.30;2278.40;;;;;;5113514;28;20107;-76
2021/05/08 02:18:01;;;;;;;7.95;4.20;;;282.30;2278.40;;;;;;5099142;28;20563;-76
2021/05/08 02:20:33;;;;;;;7.60;4.78;;;282.30;2278.40;;;;;;5103399;28;20118;-77
2021/05/08 02:23:01;;;;;;;7.82;4.30;;;282.20;2278.40;;;;;;5094726;28;20471;-76
2021/05/08 02:25:28;;;;;;;7.85;3.92;;;282.30;2278.40;;;;;;5092991;28;20111;-76
2021/05/08 02:27:54;;;;;;;5.10;3.72;;;282.30;2278.40;;;;;;5088243;28;20024;-77
2021/05/08 02:30:22;;;;;;;7.53;4.32;;;282.30;2252.80;;;;;;5092858;28;20384;-76
2021/05/08 02:32:48;;;;;;;5.65;3.50;;;282.40;2252.80;;;;;;5074226;28;20409;-76
2021/05/08 02:35:16;;;;;;;7.63;4.35;;;281.90;2278.40;;;;;;5092796;28;20062;-76
2021/05/08 02:37:42;;;;;;;10.55;4.65;;;281.90;2278.40;;;;;;5074488;28;20032;-77
2021/05/08 02:40:12;;;;;;;7.85;3.90;;;282.10;2278.40;;;;;;5094318;28;20085;-77
2021/05/08 02:42:38;;;;;;;6.95;4.38;;;282.20;2278.40;;;;;;5103718;28;20051;-77
2021/05/08 02:45:06;;;;;;;5.63;3.90;;;282.40;2278.40;;;;;;5094099;28;20162;-78
2021/05/08 02:47:32;;;;;;;6.38;4.22;;;282.30;2278.40;;;;;;5073956;28;20040;-78
2021/05/08 02:49:58;;;;;;;8.32;4.80;;;282.40;2278.40;;;;;;5094592;28;20379;-78
2021/05/08 02:52:23;;;;;;;6.68;4.45;;;282.20;2278.40;;;;;;5112588;28;20043;-77
2021/05/08 02:54:49;;;;;;;6.70;4.10;;;282.30;2278.40;;;;;;5102063;28;20162;-78
2021/05/08 02:57:15;;;;;;;6.30;3.85;;;282.30;2278.40;;;;;;5109332;28;20034;-77
2021/05/08 02:59:42;;;;;;;5.78;3.92;;;282.30;2278.40;;;;;;5103760;28;20020;-78
2021/05/08 03:02:09;;;;;;;7.60;4.32;;;282.20;2278.40;;;;;;5106658;28;20024;-77
2021/05/08 03:04:34;;;;;;;6.75;3.88;;;282.00;2278.40;;;;;;5092340;28;20028;-77
2021/05/08 03:07:01;;;;;;;6.93;4.10;;;282.10;2278.40;;;;;;5083889;28;20063;-78
2021/05/08 03:09:28;;;;;;;7.70;4.22;;;282.10;2278.40;;;;;;5093317;28;20035;-77
2021/05/08 03:11:54;;;;;;;6.40;3.67;;;281.90;2278.40;;;;;;5112584;28;20106;-78
2021/05/08 03:14:20;;;;;;;6.03;4.00;;;281.90;2278.40;;;;;;5094770;28;20088;-78
2021/05/08 03:16:46;;;;;;;9.98;4.35;;;281.80;2278.40;;;;;;5092241;28;20059;-78
2021/05/08 03:19:11;;;;;;;6.85;4.75;;;281.80;2278.40;;;;;;5091815;28;20063;-78
2021/05/08 03:21:37;;;;;;;7.90;4.50;;;281.90;2278.40;;;;;;5092107;28;20036;-77
2021/05/08 03:24:03;;;;;;;;;;;281.80;2278.40;;;;;;5092449;28;20024;-78
2021/05/08 03:26:30;;;;;;;8.20;4.20;;;281.90;2252.80;;;;;;5106113;28;19912;-78
2021/05/08 03:28:56;;;;;;;8.02;4.05;;;281.80;2278.40;;;;;;5103742;28;20024;-78
2021/05/08 03:31:21;;;;;;;5.78;4.00;;;281.90;2227.20;;;;;;5112088;28;20012;-77
2021/05/08 03:33:47;;;;;;;8.23;3.65;;;281.70;2227.20;;;;;;5112251;28;20035;-78
2021/05/08 03:36:13;;;;;;;6.28;4.00;;;281.80;2201.60;;;;;;5111982;28;20129;-78
2021/05/08 03:38:38;;;;;;;7.07;4.25;;;281.60;2252.80;;;;;;5112409;28;20019;-78
2021/05/08 03:41:05;;;;;;;6.32;3.95;;;281.60;2227.20;;;;;;5112167;28;20026;-78
2021/05/08 03:43:31;;;;;;;9.80;4.22;;;256.80;2252.80;;;;;;5110393;28;20348;-77
2021/05/08 03:45:57;;;;;;;5.32;4.10;;;256.90;2227.20;;;;;;5091816;28;20032;-78
2021/05/08 03:48:23;;;;;;;7.97;4.20;;;281.60;2227.20;;;;;;5091835;28;20475;-78
2021/05/08 03:50:49;;;;;;;7.28;4.30;;;256.80;2252.80;;;;;;5091482;28;20492;-78
2021/05/08 03:53:16;;;;;;;6.25;3.90;;;256.70;2252.80;;;;;;5073439;28;20388;-77
2021/05/08 03:55:42;;;;;;;7.18;3.80;;;256.90;2227.20;;;;;;5110010;28;20093;-77
2021/05/08 03:58:08;;;;;;;9.27;4.15;;;256.80;2227.20;;;;;;5102180;28;20463;-78
2021/05/08 04:00:34;;;;;;;6.70;4.30;;;281.70;2227.20;;;;;;5089150;28;20121;-77
2021/05/08 04:02:59;;;;;;;;;;;281.80;2176.00;;;;;;5093863;28;20036;-78
2021/05/08 04:05:26;;;;;;;6.53;3.55;;;281.70;2176.00;;;;;;5112165;28;19934;-78
2021/05/08 04:07:51;;;;;;;6.07;4.03;;;281.60;2201.60;;;;;;5092917;28;20060;-78
2021/05/08 04:10:18;;;;;;;7.05;4.10;;;281.70;2176.00;;;;;;5095791;28;20016;-77
2021/05/08 04:12:44;;;;;;;6.05;4.18;;;256.90;2176.00;;;;;;5095445;28;20027;-78
2021/05/08 04:15:10;;;;;;;6.20;4.18;;;256.80;2176.00;;;;;;5095580;28;20103;-77
2021/05/08 04:17:37;;;;;;;8.93;4.70;;;256.40;2201.60;;;;;;5094919;28;20097;-78
2021/05/08 04:20:03;;;;;;;5.35;3.88;;;256.50;2201.60;;;;;;5103782;28;20028;-77
2021/05/08 04:22:29;;;;;;;5.13;3.83;;;256.40;2201.60;;;;;;5115926;28;20035;-78
2021/05/08 04:24:55;;;;;;;6.07;3.88;;;256.30;2201.60;;;;;;5100187;28;20031;-77
2021/05/08 04:27:20;;;;;;;;;;;256.30;2176.00;;;;;;5116349;28;20127;-77
2021/05/08 04:29:46;;;;;;;7.30;4.35;;;256.20;2150.40;;;;;;5096583;28;19915;-77
2021/05/08 04:32:12;;;;;;;9.18;4.30;;;256.50;2150.40;;;;;;5095408;28;20058;-77
2021/05/08 04:34:38;;;;;;;8.48;4.80;;;256.30;2176.00;;;;;;5095008;28;20019;-77
2021/05/08 04:37:03;;;;;;;;;;;256.30;2150.40;;;;;;5094099;28;20038;-78
2021/05/08 04:39:29;;;;;;;6.15;3.75;;;256.40;2150.40;;;;;;5109430;28;19911;-78
2021/05/08 04:41:54;;;;;;;;;;;256.70;2124.80;;;;;;5101436;28;20012;-76
2021/05/08 04:44:20;;;;;;;7.00;4.68;;;256.80;2124.80;;;;;;5104540;28;19908;-77
2021/05/08 04:46:48;;;;;;;;;;;256.70;2150.40;;;;;;5095198;28;20491;-77
2021/05/08 04:49:14;;;;;;;6.70;4.20;;;256.70;2150.40;;;;;;5095017;28;20007;-77
2021/05/08 04:51:39;;;;;;;7.10;4.65;;;256.40;2150.40;;;;;;5094623;28;20079;-77
2021/05/08 04:54:05;;;;;;;7.90;4.70;;;256.60;2124.80;;;;;;5099546;28;20016;-77
2021/05/08 04:56:31;;;;;;;5.85;3.97;;;256.60;2099.20;;;;;;5115121;28;20023;-77
2021/05/08 04:58:56;;;;;;;;;;;256.70;2124.80;;;;;;5115716;28;20026;-77
2021/05/08 05:01:22;;;;;;;6.30;3.88;;;256.90;2048.00;;;;;;5114863;28;20278;-77
2021/05/08 05:03:48;;;;;;;;;;;281.60;2073.60;;;;;;5115543;28;20055;-77
2021/05/08 05:06:14;;;;;;;6.97;4.53;;;256.80;2048.00;;;;;;5114810;28;19965;-77
2021/05/08 05:08:39;;;;;;;;;;;256.70;2073.60;;;;;;5115553;28;20027;-77
2021/05/08 05:11:05;;;;;;;12.65;5.95;;;256.80;2073.60;;;;;;5114704;28;19903;-77
2021/05/08 05:13:30;;;;;;;;;;;256.80;2099.20;;;;;;5104514;28;20055;-76
2021/05/08 05:15:56;;;;;;;16.35;8.73;;;256.80;2048.00;;;;;;5108861;28;19904;-75
2021/05/08 05:18:22;;;;;;;33.45;15.77;;;256.70;2048.00;;;;;;5093829;28;20028;-75
2021/05/08 05:20:47;;;;;;;;;;;256.50;2073.60;;;;;;5095174;28;20078;-75
2021/05/08 05:23:14;;;;;;;19.50;8.85;;;256.50;2099.20;;;;;;5114465;28;20363;-75
2021/05/08 05:25:40;;;;;;;10.35;6.47;;;256.40;2099.20;;;;;;5114682;28;20032;-75
2021/05/08 05:28:29;;;;;;;8.10;6.05;;;256.40;2048.00;;;;;;5109656;28;20027;-75
2021/05/08 05:30:56;;;;;;;7.90;5.28;;;256.40;2073.60;;;;;;5094353;28;20372;-75
2021/05/08 05:33:22;;;;;;;8.27;5.72;;;256.50;2099.20;;;;;;5100128;28;20020;-78
2021/05/08 05:35:49;;;;;;;8.00;5.28;;;256.60;2099.20;;;;;;5114467;28;20019;-78
2021/05/08 05:38:16;;;;;;;7.28;4.90;;;256.90;2073.60;;;;;;5096123;28;20055;-78
2021/05/08 05:40:43;;;;;;;9.18;5.13;;;256.90;2048.00;;;;;;5114244;28;20024;-78
2021/05/08 05:43:09;;;;;;;5.75;3.95;;;256.90;2048.00;;;;;;5114210;28;20023;-78
2021/05/08 05:45:35;;;;;;;6.13;4.28;;;256.80;2048.00;;;;;;5094830;28;20027;-79
2021/05/08 05:48:03;;;;;;;6.72;4.15;;;281.70;2124.80;;;;;;5093944;28;20027;-78
2021/05/08 05:50:30;;;;;;;9.15;5.30;;;281.80;2099.20;;;;;;5096686;28;20419;-77
2021/05/08 05:52:56;;;;;;;7.43;4.72;;;281.90;2048.00;;;;;;5093348;28;20496;-78
2021/05/08 05:55:24;;;;;;;6.97;4.95;;;282.00;2022.40;;;;;;5093571;28;20038;-78
2021/05/08 05:57:51;;;;;;;7.75;4.85;;;282.20;1996.80;;;;;;5093426;28;20087;-77
2021/05/08 06:00:18;;;;;;;6.22;4.57;;;282.30;1971.20;;;;;;5080001;28;20178;-78
2021/05/08 06:02:44;;;;;;;8.25;4.63;;;282.20;1996.80;;;;;;5086033;28;20035;-78
2021/05/08 06:05:11;;;;;;;7.15;4.53;;;282.30;1996.80;;;;;;5105085;28;20016;-78
2021/05/08 06:07:37;;;;;;;8.32;3.85;;;282.30;1971.20;;;;;;5112883;28;20020;-78
2021/05/08 06:10:04;;;;;;;8.52;4.25;;;282.50;1920.00;;;;;;5113278;28;20090;-78
2021/05/08 06:12:31;;;;;;;8.05;5.07;;;282.50;1920.00;;;;;;5105548;28;20019;-78
2021/05/08 06:14:57;;;;;;;6.75;4.57;;;282.40;1920.00;;;;;;5107000;28;20429;-78
2021/05/08 06:17:23;;;;;;;5.80;4.35;;;307.20;1945.60;;;;;;5108829;28;20028;-78
2021/05/08 06:19:48;;;;;;;10.07;4.50;;;307.20;1868.80;;;;;;5104848;28;20024;-80
2021/05/08 06:22:14;;;;;;;8.07;4.43;;;307.30;1894.40;;;;;;5111300;28;20031;-78
2021/05/08 06:24:41;;;;;;;8.55;4.78;;;307.40;1894.40;;;;;;5081075;28;20035;-79
2021/05/08 06:27:07;;;;;;;9.40;6.20;;;307.60;1894.40;;;;;;5106003;28;20039;-77
2021/05/08 06:29:33;;;;;;;7.63;4.13;;;307.60;1894.40;;;;;;5109570;28;20028;-78
2021/05/08 06:31:58;;;;;;;9.00;4.88;;;307.80;1792.00;;;;;;5103703;28;20011;-78
2021/05/08 06:34:24;;;;;;;;;;;307.80;1843.20;;;;;;5082272;28;20069;-77
2021/05/08 06:36:50;;;;;;;9.98;4.32;;;307.90;1843.20;;;;;;5092967;28;20063;-76
2021/05/08 06:39:15;;;;;;;6.50;4.60;;;307.80;1817.60;;;;;;5092643;28;20024;-77
2021/05/08 06:41:41;;;;;;;8.27;4.65;;;308.00;1817.60;;;;;;5092382;28;20521;-76
2021/05/08 06:44:07;;;;;;;7.53;4.90;;;308.10;1792.00;;;;;;5092649;28;20020;-78
2021/05/08 06:46:33;;;;;;;7.95;4.75;;;308.10;1817.60;;;;;;5092653;28;20039;-78
2021/05/08 06:48:59;;;;;;;10.25;4.57;;;308.10;1766.40;;;;;;5092506;28;20482;-77
2021/05/08 06:51:24;;;;;;;9.55;4.68;;;332.90;1817.60;;;;;;5103111;28;20048;-77
2021/05/08 06:53:50;;;;;;;7.63;5.07;;;333.20;1766.40;;;;;;5095647;28;20028;-78
2021/05/08 06:56:16;;;;;;;6.28;4.82;;;333.30;1766.40;;;;;;5092385;28;20024;-78
2021/05/08 06:58:41;;;;;;;5.53;3.85;;;333.20;1715.20;;;;;;5092111;28;20059;-77
2021/05/08 07:01:08;;;;;;;7.63;4.60;;;333.30;1689.60;;;;;;5092004;28;20058;-78
2021/05/08 07:03:34;;;;;;;6.20;4.40;;;333.40;1715.20;;;;;;5074278;28;20480;-78
2021/05/08 07:06:00;;;;;;;7.35;4.35;;;333.30;1689.60;;;;;;5092192;28;20153;-78
2021/05/08 07:08:26;;;;;;;9.52;4.53;;;333.60;1664.00;;;;;;5092322;28;20463;-78
2021/05/08 07:10:53;;;;;;;6.35;4.28;;;333.70;1638.40;;;;;;5094994;28;20032;-78
2021/05/08 07:13:20;;;;;;;8.48;4.43;;;333.70;1689.60;;;;;;5103436;28;20062;-78
2021/05/08 07:15:47;;;;;;;9.50;5.10;;;333.60;1587.20;;;;;;5085779;28;20039;-78
2021/05/08 07:18:12;;;;;;;6.70;4.65;;;333.70;1638.40;;;;;;5092110;28;20030;-76
2021/05/08 07:20:39;;;;;;;8.00;4.32;;;358.50;1638.40;;;;;;5092234;28;20032;-76
2021/05/08 07:23:07;;;;;;;8.05;4.90;;;358.50;1536.00;;;;;;5091720;28;20099;-77
2021/05/08 07:25:35;;;;;;;11.13;4.30;;;358.60;1561.60;;;;;;5100669;28;20028;-76
2021/05/08 07:28:27;;;;;;;9.25;4.80;;;358.60;1561.60;;;;;;5108876;28;20019;-77
2021/05/08 07:30:54;;;;;;;8.70;4.20;;;358.70;1536.00;;;;;;5102876;28;20111;-78
2021/05/08 07:33:22;;;;;;;6.32;4.10;;;358.60;1484.80;;;;;;5092783;28;20479;-77
2021/05/08 07:35:48;;;;;;;22.10;12.25;;;358.70;1484.80;;;;;;5093315;28;20573;-77
2021/05/08 07:38:15;;;;;;;11.02;7.47;;;358.80;1510.40;;;;;;5101409;28;20016;-78
2021/05/08 07:40:41;;;;;;;5.57;4.38;;;359.00;1510.40;;;;;;5076349;28;20084;-78
2021/05/08 07:43:08;;;;;;;5.20;4.03;;;358.90;1433.60;;;;;;5105221;28;20055;-78
2021/05/08 07:45:34;;;;;;;5.93;4.47;;;358.80;1484.80;;;;;;5093557;28;20031;-78
2021/05/08 07:48:00;;;;;;;6.13;4.32;;;358.90;1459.20;;;;;;5083886;28;20036;-77
2021/05/08 07:50:27;;;;;;;6.70;3.70;;;359.00;1484.80;;;;;;5097534;28;20024;-76
2021/05/08 07:52:53;;;;;;;5.93;3.92;;;359.00;1459.20;;;;;;5102962;28;20114;-77
2021/05/08 07:55:19;;;;;;;8.20;4.40;;;359.10;1433.60;;;;;;5092452;28;20036;-76
2021/05/08 07:57:45;;;;;;;5.82;4.03;;;359.30;1459.20;;;;;;5111919;28;20031;-77
2021/05/08 08:00:12;;;;;;;6.63;4.32;;;359.20;1459.20;;;;;;5101113;28;20024;-78
2021/05/08 08:02:38;;;;;;;8.35;4.57;;;359.30;1510.40;;;;;;5106303;28;20031;-76
2021/05/08 08:05:06;;;;;;;8.15;5.00;;;384.00;1459.20;;;;;;5108523;28;20016;-77
2021/05/08 08:07:31;;;;;;;6.88;4.40;;;384.20;1484.80;;;;;;5105643;28;20033;-75
2021/05/08 08:09:58;;;;;;;11.65;6.35;;;384.30;1408.00;;;;;;5100425;28;20098;-77
2021/05/08 08:12:24;;;;;;;6.45;4.07;;;384.30;1408.00;;;;;;5111311;28;20046;-77
2021/05/08 08:14:50;;;;;;;7.20;4.47;;;384.40;1331.20;;;;;;5101650;28;20075;-77
2021/05/08 08:17:16;;;;;;;6.30;4.15;;;384.30;1305.60;;;;;;5093158;28;20020;-79
2021/05/08 08:19:44;;;;;;;6.95;4.00;;;384.40;1280.00;;;;;;5094276;28;20506;-78
2021/05/08 08:22:10;;;;;;;7.32;4.38;;;384.40;1382.40;;;;;;5103040;28;20051;-78
2021/05/08 08:24:36;;;;;;;10.57;3.60;;;384.40;1331.20;;;;;;5102852;28;20112;-78
2021/05/08 08:27:01;;;;;;;11.85;4.65;;;384.50;1331.20;;;;;;5101357;28;20027;-79
2021/05/08 08:29:28;;;;;;;10.50;3.63;;;384.60;1331.20;;;;;;5092774;28;20047;-77
2021/05/08 08:31:54;;;;;;;7.60;4.30;;;384.60;1356.80;;;;;;5083010;28;20085;-77
2021/05/08 08:34:20;;;;;;;5.88;4.15;;;409.60;1280.00;;;;;;5097145;28;20021;-77
2021/05/08 08:36:46;;;;;;;7.05;4.22;;;384.80;1228.80;;;;;;5102775;28;20028;-76
2021/05/08 08:39:11;;;;;;;6.30;3.83;;;384.80;1228.80;;;;;;5094394;28;20443;-78
2021/05/08 08:41:37;;;;;;;9.50;4.22;;;384.70;1228.80;;;;;;5095410;28;20021;-75
2021/05/08 08:44:09;;;;;;;9.90;5.10;;;384.40;1254.40;;;;;;5093795;28;20024;-76
2021/05/08 08:46:42;;;;;;;7.07;4.72;;;384.00;1280.00;;;;;;5104098;28;20078;-76
2021/05/08 08:49:08;;;;;;;8.55;5.30;;;359.20;1305.60;;;;;;5091243;28;20012;-76
2021/05/08 08:51:34;;;;;;;8.23;4.75;;;359.30;1331.20;;;;;;5091014;28;20425;-81
2021/05/08 08:54:00;;;;;;;5.90;4.07;;;384.20;1331.20;;;;;;5088630;28;20123;-79
2021/05/08 08:56:33;;;;;;;6.85;3.25;;;384.50;1254.40;;;;;;5110539;28;20019;-77
2021/05/08 08:59:04;;;;;;;5.88;4.20;;;384.30;1228.80;;;;;;5109433;28;20023;-78
2021/05/08 09:01:30;;;;;;;6.13;4.22;;;384.30;1280.00;;;;;;5110561;28;20019;-78
2021/05/08 09:03:56;;;;;;;6.78;4.18;;;384.50;1228.80;;;;;;5111471;28;20020;-77
2021/05/08 09:06:23;;;;;;;5.35;3.67;;;384.90;1254.40;;;;;;5112209;28;20106;-77
2021/05/08 09:08:52;;;;;;;8.13;3.80;;;409.60;1254.40;;;;;;5100533;28;20012;-78
2021/05/08 09:11:17;;;;;;;7.95;3.78;;;409.90;1203.20;;;;;;5094005;28;20109;-78
2021/05/08 09:13:43;;;;;;;5.43;3.17;;;410.20;1152.00;;;;;;5094704;28;20020;-78
2021/05/08 09:16:09;;;;;;;6.15;4.30;;;410.20;1152.00;;;;;;5094328;28;20018;-77
2021/05/08 09:18:38;;;;;;;10.40;5.25;;;410.50;1126.40;;;;;;5076266;28;20028;-77
2021/05/08 09:21:05;;;;;;;8.45;4.85;;;435.20;1177.60;;;;;;5089522;28;20035;-77
2021/05/08 09:23:32;;;;;;;6.40;3.20;;;435.50;1126.40;;;;;;5104049;28;20038;-77
2021/05/08 09:26:06;;;;;;;5.28;3.70;;;435.60;1100.80;;;;;;5098833;28;20078;-77
2021/05/08 09:28:38;;;;;;;5.70;3.72;;;435.80;1100.80;;;;;;5094356;28;20051;-77
2021/05/08 09:31:05;;;;;;;5.90;3.85;;;435.70;1126.40;;;;;;5106530;28;20027;-78
2021/05/08 09:33:32;;;;;;;10.98;5.05;;;435.80;1100.80;;;;;;5100709;28;20023;-79
2021/05/08 09:36:18;;;;;;;16.75;9.02;;;436.10;1049.60;;;;;;5111539;28;20019;-79
2021/05/08 09:38:45;;;;;;;9.80;6.28;;;460.80;1152.00;;;;;;5113005;28;20050;-78
2021/05/08 09:41:19;;;;;;;12.95;6.22;;;461.00;1075.20;;;;;;5113661;28;20360;-79
2021/05/08 09:43:45;;;;;;;5.85;3.90;;;461.10;1075.20;;;;;;5110112;28;20414;-79
2021/05/08 09:46:28;;;;;;;5.35;3.80;;;460.90;1100.80;;;;;;5102933;28;20028;-78
2021/05/08 09:49:10;;;;;;;5.07;3.75;;;461.10;1049.60;;;;;;5110085;28;20016;-79
2021/05/08 09:51:36;;;;;;;11.85;5.63;;;461.00;1100.80;;;;;;5087393;28;20055;-77
2021/05/08 09:54:16;;;;;;;9.55;5.32;;;461.10;1100.80;;;;;;5110396;28;20069;-78
2021/05/08 09:56:42;;;;;;;6.63;4.18;;;460.90;1100.80;;;;;;5100930;28;20020;-79
2021/05/08 09:59:35;;;;;;;7.75;4.88;;;461.40;1049.60;;;;;;5101816;28;20050;-79
2021/05/08 10:02:04;;;;;;;11.10;6.22;;;461.10;1049.60;;;;;;5104626;28;20008;-78
2021/05/08 10:04:34;;;;;;;7.40;4.97;;;461.10;1049.60;;;;;;5093591;28;20031;-79
2021/05/08 10:07:08;;;;;;;5.60;4.22;;;461.20;1049.60;;;;;;5094412;28;20380;-77
2021/05/08 10:09:34;;;;;;;6.80;4.25;;;461.50;998.40;;;;;;5074684;28;20027;-78
2021/05/08 10:12:05;;;;;;;6.72;4.25;;;461.30;998.40;;;;;;5093555;28;20047;-78
2021/05/08 10:14:33;;;;;;;10.57;4.93;;;460.90;1024.00;;;;;;5098024;28;20040;-78
2021/05/08 10:16:59;;;;;;;8.18;4.18;;;461.10;1075.20;;;;;;5085486;28;20024;-78
2021/05/08 10:19:29;;;;;;;6.40;4.82;;;461.50;1075.20;;;;;;5096189;28;20032;-79
2021/05/08 10:21:57;;;;;;;12.15;6.85;;;461.70;1049.60;;;;;;5099416;28;20047;-78
2021/05/08 10:24:25;;;;;;;8.38;5.53;;;461.50;998.40;;;;;;5078727;28;20040;-78
2021/05/08 10:26:57;;;;;;;10.95;5.45;;;460.90;1126.40;;;;;;5079822;28;20508;-79
2021/05/08 10:29:25;;;;;;;9.25;4.50;;;461.70;1024.00;;;;;;5105018;28;20589;-78
2021/05/08 10:31:52;;;;;;;7.10;4.18;;;461.40;998.40;;;;;;5086142;28;20479;-81
2021/05/08 10:34:33;;;;;;;6.30;4.30;;;460.80;1075.20;;;;;;5094343;28;20390;-79
2021/05/08 10:37:09;;;;;;;8.15;5.65;;;435.80;1075.20;;;;;;5084879;28;20015;-81
2021/05/08 10:39:56;;;;;;;10.10;5.80;;;435.80;1126.40;;;;;;5090227;28;20469;-80
2021/05/08 10:42:40;;;;;;;6.15;4.75;;;436.00;1126.40;;;;;;5085240;28;20308;-80
2021/05/08 10:45:31;;;;;;;8.57;4.90;;;460.90;1024.00;;;;;;5092402;28;20119;-79
2021/05/08 10:47:58;;;;;;;7.20;5.00;;;435.80;1075.20;;;;;;5093426;28;20102;-79
2021/05/08 10:50:25;;;;;;;7.18;4.72;;;435.50;1075.20;;;;;;5089387;28;20036;-80
2021/05/08 10:53:12;;;;;;;9.93;5.97;;;435.30;1100.80;;;;;;5103906;28;20035;-79
2021/05/08 10:55:53;;;;;;;7.55;4.63;;;436.00;1049.60;;;;;;5084542;28;20015;-79
2021/05/08 10:58:20;;;;;;;5.50;4.38;;;461.10;1024.00;;;;;;5102735;28;20023;-79
2021/05/08 11:01:00;;;;;;;6.78;5.03;;;461.50;998.40;;;;;;5093791;28;20026;-79
2021/05/08 11:03:31;;;;;;;7.00;4.90;;;461.70;1049.60;;;;;;5106268;28;20030;-79
2021/05/08 11:06:14;;;;;;;9.38;5.45;;;461.70;998.40;;;;;;5101918;28;20036;-80
2021/05/08 11:08:44;;;;;;;6.28;4.82;;;486.70;998.40;;;;;;5078948;28;20039;-79
2021/05/08 11:11:27;;;;;;;7.07;5.28;;;486.40;972.80;;;;;;5085749;28;20410;-79
2021/05/08 11:14:02;;;;;;;5.88;4.60;;;486.40;1049.60;;;;;;5091545;28;20050;-79
2021/05/08 11:16:27;;;;;;;6.72;5.20;;;461.50;1049.60;;;;;;5092968;28;20109;-79
2021/05/08 11:18:56;;;;;;;10.82;5.95;;;461.10;1100.80;;;;;;5093016;28;20061;-79
2021/05/08 11:21:27;;;;;;;9.30;5.88;;;460.90;1075.20;;;;;;5091402;28;20367;-79
2021/05/08 11:23:55;;;;;;;12.20;6.53;;;460.80;1049.60;;;;;;5090350;28;20044;-79
2021/05/08 11:26:29;;;;;;;6.63;4.72;;;461.00;1075.20;;;;;;5100007;28;20376;-80
2021/05/08 11:29:23;;;;;;;6.32;4.65;;;461.40;998.40;;;;;;5081584;28;20111;-79
2021/05/08 11:31:57;;;;;;;9.30;5.57;;;486.40;947.20;;;;;;5073572;28;20023;-79
2021/05/08 11:34:27;;;;;;;5.35;4.07;;;461.20;998.40;;;;;;5089755;28;20298;-82
2021/05/08 11:37:03;;;;;;;6.32;4.65;;;461.00;972.80;;;;;;5075021;28;20114;-79
2021/05/08 11:39:43;;;;;;;7.65;4.53;;;436.10;1024.00;;;;;;5075020;28;20055;-81
2021/05/08 11:42:13;;;;;;;5.97;4.35;;;460.80;1024.00;;;;;;5073888;28;20034;-79
2021/05/08 11:44:47;;;;;;;6.40;4.03;;;461.40;998.40;;;;;;5106968;28;20030;-79
2021/05/08 11:47:31;;;;;;;8.30;4.93;;;461.10;972.80;;;;;;5075510;28;20047;-79
2021/05/08 11:50:01;;;;;;;6.05;4.88;;;460.90;1024.00;;;;;;5104679;28;20024;-80
2021/05/08 11:52:51;;;;;;;5.38;3.92;;;436.10;1049.60;;;;;;5106526;28;20043;-79
2021/05/08 11:55:20;;;;;;;7.07;4.85;;;460.80;1075.20;;;;;;5073928;28;20028;-79
2021/05/08 11:57:59;;;;;;;7.13;4.82;;;435.90;1049.60;;;;;;5097436;28;20122;-79
2021/05/08 12:00:31;;;;;;;6.85;4.93;;;435.90;1075.20;;;;;;5092984;28;20050;-79
2021/05/08 12:03:12;;;;;;;5.97;4.22;;;436.00;972.80;;;;;;5091589;28;20016;-79
2021/05/08 12:05:40;;;;;;;8.25;5.40;;;461.10;1024.00;;;;;;5075058;28;20034;-79
2021/05/08 12:08:07;;;;;;;8.57;5.15;;;461.70;998.40;;;;;;5098261;28;20453;-78
2021/05/08 12:10:34;;;;;;;5.55;3.95;;;461.50;998.40;;;;;;5090371;28;20025;-79
2021/05/08 12:13:00;;;;;;;7.88;5.07;;;461.50;998.40;;;;;;5079867;28;20034;-79
2021/05/08 12:15:35;;;;;;;6.88;4.40;;;461.00;1049.60;;;;;;5102913;28;20024;-79
2021/05/08 12:18:05;;;;;;;6.60;4.53;;;460.80;1075.20;;;;;;5091978;28;20027;-79
2021/05/08 12:20:35;;;;;;;6.28;4.65;;;435.90;1024.00;;;;;;5073136;28;20032;-79
2021/05/08 12:23:04;;;;;;;8.90;4.07;;;435.80;1049.60;;;;;;5092458;28;20028;-79
2021/05/08 12:25:30;;;;;;;9.90;4.20;;;435.80;1049.60;;;;;;5111769;28;20077;-79